createdAt,value
2023-02-11T00:02:11.078Z,2.22
2023-02-11T00:05:15.424Z,2.30
2023-02-11T00:08:19.623Z,2.37
2023-02-11T00:11:31.343Z,2.39
2023-02-11T00:14:35.338Z,2.38
2023-02-11T00:17:39.881Z,2.34
2023-02-11T00:20:44.313Z,2.21
2023-02-11T00:23:48.270Z,2.20
2023-02-11T00:26:52.494Z,2.18
2023-02-11T00:29:56.832Z,2.16
2023-02-11T00:33:01.121Z,2.20
2023-02-11T00:36:11.267Z,2.23
2023-02-11T00:39:15.533Z,2.29
2023-02-11T00:42:19.323Z,2.29
2023-02-11T00:45:23.679Z,2.32
2023-02-11T00:48:27.748Z,2.38
2023-02-11T00:51:31.897Z,2.36
2023-02-11T00:54:36.164Z,2.35
2023-02-11T00:57:40.227Z,2.43
2023-02-11T01:00:44.606Z,2.45
2023-02-11T01:03:48.620Z,2.40
2023-02-11T01:06:53.360Z,2.47
2023-02-11T01:09:57.457Z,2.56
2023-02-11T01:13:01.797Z,2.59
2023-02-11T01:16:10.504Z,2.62
2023-02-11T01:19:14.788Z,2.68
2023-02-11T01:22:19.406Z,2.63
2023-02-11T01:25:23.941Z,2.62
2023-02-11T01:28:30.392Z,2.68
2023-02-11T01:31:35.017Z,2.76
2023-02-11T01:34:38.936Z,2.78
2023-02-11T01:37:43.091Z,2.83
2023-02-11T01:41:00.982Z,2.83
2023-02-11T01:44:33.421Z,2.88
2023-02-11T01:47:37.573Z,2.97
2023-02-11T01:50:42.996Z,2.99
2023-02-11T01:54:08.261Z,2.95
2023-02-11T01:57:22.181Z,3.00
2023-02-11T02:00:34.248Z,3.00
2023-02-11T02:03:41.812Z,3.05
2023-02-11T02:06:54.810Z,3.09
2023-02-11T02:10:05.176Z,3.14
2023-02-11T02:13:09.700Z,3.17
2023-02-11T02:16:16.733Z,3.13
2023-02-11T02:19:36.243Z,3.16
2023-02-11T02:22:52.270Z,3.22
2023-02-11T02:26:14.649Z,3.25
2023-02-11T02:29:24.791Z,3.25
2023-02-11T02:33:16.740Z,3.26
2023-02-11T02:36:44.247Z,3.31
2023-02-11T02:39:50.340Z,3.40
2023-02-11T02:42:55.506Z,3.44
2023-02-11T02:46:24.886Z,3.50
2023-02-11T02:49:29.260Z,3.53
2023-02-11T02:52:39.317Z,3.53
2023-02-11T02:56:11.485Z,3.63
2023-02-11T02:59:30.971Z,3.61
2023-02-11T03:03:21.351Z,3.62
2023-02-11T03:06:28.064Z,3.61
2023-02-11T03:09:54.798Z,3.59
2023-02-11T03:13:00.226Z,3.67
2023-02-11T03:16:09.719Z,3.77
2023-02-11T03:19:23.577Z,3.78
2023-02-11T03:22:35.323Z,3.81
2023-02-11T03:25:48.994Z,3.77
2023-02-11T03:29:06.924Z,3.87
2023-02-11T03:32:17.455Z,3.88
2023-02-11T03:35:39.532Z,3.90
2023-02-11T03:38:51.824Z,3.92
2023-02-11T03:41:56.488Z,3.97
2023-02-11T03:45:06.585Z,3.98
2023-02-11T03:48:39.624Z,3.96
2023-02-11T03:51:44.131Z,4.00
2023-02-11T03:54:53.639Z,4.09
2023-02-11T03:57:57.924Z,4.03
2023-02-11T04:01:02.728Z,4.07
2023-02-11T04:04:06.801Z,4.07
2023-02-11T04:07:12.242Z,4.09
2023-02-11T04:10:16.791Z,4.14
2023-02-11T04:13:22.991Z,4.14
2023-02-11T04:16:27.026Z,4.11
2023-02-11T04:19:30.937Z,4.27
2023-02-11T04:22:35.233Z,4.29
2023-02-11T04:25:39.812Z,4.25
2023-02-11T04:28:43.777Z,4.30
2023-02-11T04:31:48.372Z,4.28
2023-02-11T04:34:52.195Z,4.33
2023-02-11T04:37:56.415Z,4.35
2023-02-11T04:41:00.939Z,4.45
2023-02-11T04:44:05.254Z,4.41
2023-02-11T04:47:09.560Z,4.42
2023-02-11T04:50:13.687Z,4.39
2023-02-11T04:53:17.625Z,4.44
2023-02-11T04:56:21.585Z,4.50
2023-02-11T04:59:25.846Z,4.54
2023-02-11T05:02:30.141Z,4.53
2023-02-11T05:05:34.384Z,4.50
2023-02-11T05:08:39.013Z,4.55
2023-02-11T05:11:43.564Z,4.52
2023-02-11T05:14:47.640Z,4.48
2023-02-11T05:17:51.850Z,4.51
2023-02-11T05:20:55.912Z,4.51
2023-02-11T05:24:00.452Z,4.48
2023-02-11T05:27:04.599Z,4.53
2023-02-11T05:30:09.632Z,4.56
2023-02-11T05:33:13.614Z,4.53
2023-02-11T05:36:17.861Z,4.52
2023-02-11T05:39:22.008Z,4.56
2023-02-11T05:42:26.335Z,4.57
2023-02-11T05:45:31.024Z,4.55
2023-02-11T05:48:35.667Z,4.52
2023-02-11T05:51:39.580Z,4.59
2023-02-11T05:54:43.676Z,4.62
2023-02-11T05:57:47.872Z,4.60
2023-02-11T06:00:52.029Z,4.53
2023-02-11T06:03:55.903Z,4.55
2023-02-11T06:07:00.300Z,4.60
2023-02-11T06:10:04.681Z,4.65
2023-02-11T06:13:08.783Z,4.62
2023-02-11T06:16:13.357Z,4.62
2023-02-11T06:19:17.327Z,4.63
2023-02-11T06:22:21.265Z,4.69
2023-02-11T06:25:25.364Z,4.72
2023-02-11T06:28:31.386Z,4.74
2023-02-11T06:31:38.048Z,4.69
2023-02-11T06:34:41.816Z,4.66
2023-02-11T06:37:46.775Z,4.65
2023-02-11T06:40:51.019Z,4.71
2023-02-11T06:43:55.082Z,4.76
2023-02-11T06:46:59.206Z,4.81
2023-02-11T06:50:03.709Z,4.84
2023-02-11T06:53:07.974Z,4.84
2023-02-11T06:56:17.851Z,4.79
2023-02-11T06:59:22.072Z,4.81
2023-02-11T07:02:26.425Z,4.80
2023-02-11T07:05:31.006Z,4.82
2023-02-11T07:08:36.898Z,4.88
2023-02-11T07:11:41.281Z,4.98
2023-02-11T07:14:45.427Z,4.94
2023-02-11T07:17:49.586Z,4.90
2023-02-11T07:20:53.953Z,4.92
2023-02-11T07:23:58.055Z,4.93
2023-02-11T07:27:02.243Z,5.02
2023-02-11T07:30:07.499Z,4.99
2023-02-11T07:33:11.574Z,5.06
2023-02-11T07:36:16.551Z,5.04
2023-02-11T07:39:21.878Z,5.04
2023-02-11T07:42:25.962Z,5.10
2023-02-11T07:45:30.032Z,5.05
2023-02-11T07:48:34.791Z,5.05
2023-02-11T07:51:39.197Z,5.12
2023-02-11T07:54:43.483Z,5.15
2023-02-11T07:57:47.298Z,5.23
2023-02-11T08:00:51.212Z,5.17
2023-02-11T08:03:57.416Z,5.22
2023-02-11T08:07:01.263Z,5.33
2023-02-11T08:10:05.376Z,5.32
2023-02-11T08:13:09.429Z,5.30
2023-02-11T08:16:31.002Z,5.36
2023-02-11T08:19:35.381Z,5.36
2023-02-11T08:22:39.758Z,5.48
2023-02-11T08:25:44.062Z,5.47
2023-02-11T08:28:49.611Z,5.56
2023-02-11T08:31:53.599Z,5.55
2023-02-11T08:34:57.393Z,5.52
2023-02-11T08:38:01.566Z,5.60
2023-02-11T08:41:06.422Z,5.68
2023-02-11T08:44:10.996Z,5.71
2023-02-11T08:47:14.860Z,5.79
2023-02-11T08:50:18.781Z,5.83
2023-02-11T08:53:22.921Z,5.93
2023-02-11T08:56:28.131Z,5.92
2023-02-11T08:59:32.411Z,5.92
2023-02-11T09:02:36.570Z,5.98
2023-02-11T09:05:45.739Z,5.87
2023-02-11T09:08:52.645Z,6.04
2023-02-11T09:11:57.330Z,6.06
2023-02-11T09:15:01.523Z,6.08
2023-02-11T09:18:05.820Z,6.02
2023-02-11T09:21:10.109Z,6.07
2023-02-11T09:24:14.528Z,6.04
2023-02-11T09:27:18.639Z,6.15
2023-02-11T09:30:22.827Z,6.23
2023-02-11T09:33:27.168Z,6.32
2023-02-11T09:36:35.308Z,6.23
2023-02-11T09:39:39.518Z,6.30
2023-02-11T09:42:48.172Z,6.25
2023-02-11T09:45:55.824Z,6.47
2023-02-11T09:49:00.363Z,6.51
2023-02-11T09:52:32.259Z,6.64
2023-02-11T09:55:45.484Z,6.68
2023-02-11T09:58:49.313Z,6.75
2023-02-11T10:01:59.232Z,6.76
2023-02-11T10:05:15.350Z,6.81
2023-02-11T10:08:47.539Z,6.93
2023-02-11T10:12:15.610Z,6.89
2023-02-11T10:15:38.868Z,6.89
2023-02-11T10:18:48.784Z,6.91
2023-02-11T10:21:58.857Z,7.06
2023-02-11T10:25:18.810Z,7.12
2023-02-11T10:28:36.045Z,7.11
2023-02-11T10:31:44.608Z,7.14
2023-02-11T10:34:48.755Z,7.27
2023-02-11T10:37:53.889Z,7.23
2023-02-11T10:40:57.918Z,7.22
2023-02-11T10:44:01.949Z,7.15
2023-02-11T10:47:28.816Z,7.19
2023-02-11T10:50:35.135Z,7.17
2023-02-11T10:53:39.624Z,7.13
2023-02-11T10:56:52.857Z,7.10
2023-02-11T11:00:00.509Z,7.10
2023-02-11T11:03:16.921Z,7.13
2023-02-11T11:06:34.863Z,7.18
2023-02-11T11:09:46.858Z,7.21
2023-02-11T11:12:51.295Z,7.19
2023-02-11T11:16:12.906Z,7.20
2023-02-11T11:19:22.653Z,7.15
2023-02-11T11:22:26.523Z,7.13
2023-02-11T11:25:30.713Z,7.25
2023-02-11T11:29:08.304Z,7.24
2023-02-11T11:32:20.595Z,7.19
2023-02-11T11:35:30.867Z,7.27
2023-02-11T11:38:37.629Z,7.24
2023-02-11T11:41:51.612Z,7.35
2023-02-11T11:45:04.601Z,7.36
2023-02-11T11:48:42.739Z,7.24
2023-02-11T11:51:57.905Z,7.19
2023-02-11T11:55:26.964Z,7.09
2023-02-11T11:58:32.108Z,7.02
2023-02-11T12:02:00.658Z,7.13
2023-02-11T12:05:17.213Z,7.19
2023-02-11T12:08:37.802Z,7.20
2023-02-11T12:12:02.433Z,7.29
2023-02-11T12:15:22.906Z,7.31
2023-02-11T12:18:47.541Z,7.29
2023-02-11T12:22:19.666Z,7.27
2023-02-11T12:25:55.678Z,7.40
2023-02-11T12:29:28.543Z,7.40
2023-02-11T12:32:43.602Z,7.34
2023-02-11T12:35:47.589Z,7.38
2023-02-11T12:38:51.409Z,7.36
2023-02-11T12:42:52.149Z,7.40
2023-02-11T12:46:11.793Z,7.34
2023-02-11T12:49:45.604Z,7.38
2023-02-11T12:53:04.192Z,7.43
2023-02-11T12:56:38.774Z,7.37
2023-02-11T12:59:49.970Z,7.43
2023-02-11T13:03:02.572Z,7.40
2023-02-11T13:06:14.648Z,7.34
2023-02-11T13:09:26.601Z,7.47
2023-02-11T13:12:51.540Z,7.38
2023-02-11T13:16:05.597Z,7.33
2023-02-11T13:19:12.832Z,7.35
2023-02-11T13:22:27.407Z,7.40
2023-02-11T13:25:40.694Z,7.37
2023-02-11T13:28:48.640Z,7.31
2023-02-11T13:31:58.438Z,7.30
2023-02-11T13:35:02.685Z,7.31
2023-02-11T13:38:19.360Z,7.32
2023-02-11T13:41:34.388Z,7.30
2023-02-11T13:44:38.801Z,7.30
2023-02-11T13:47:42.975Z,7.28
2023-02-11T13:50:49.702Z,7.27
2023-02-11T13:53:56.486Z,7.33
2023-02-11T13:57:22.130Z,7.35
2023-02-11T14:00:35.317Z,7.33
2023-02-11T14:04:14.585Z,7.44
2023-02-11T14:07:48.950Z,7.36
2023-02-11T14:10:59.065Z,7.30
2023-02-11T14:14:05.064Z,7.31
2023-02-11T14:17:09.495Z,7.34
2023-02-11T14:20:38.139Z,7.26
2023-02-11T14:23:42.498Z,7.32
2023-02-11T14:26:56.358Z,7.28
2023-02-11T14:30:28.728Z,7.28
2023-02-11T14:33:58.728Z,7.36
2023-02-11T14:37:16.522Z,7.29
2023-02-11T14:40:29.744Z,7.29
2023-02-11T14:43:47.899Z,7.40
2023-02-11T14:46:53.680Z,7.35
2023-02-11T14:49:57.568Z,7.37
2023-02-11T14:53:03.314Z,7.34
2023-02-11T14:56:21.203Z,7.37
2023-02-11T14:59:25.220Z,7.36
2023-02-11T15:02:35.617Z,7.35
2023-02-11T15:05:39.566Z,7.39
2023-02-11T15:08:48.294Z,7.44
2023-02-11T15:11:53.209Z,7.50
2023-02-11T15:14:59.881Z,7.48
2023-02-11T15:18:05.127Z,7.47
2023-02-11T15:21:09.973Z,7.47
2023-02-11T15:24:25.202Z,7.47
2023-02-11T15:27:41.488Z,7.47
2023-02-11T15:30:45.515Z,7.41
2023-02-11T15:33:50.766Z,7.48
2023-02-11T15:36:54.926Z,7.40
2023-02-11T15:40:12.419Z,7.41
2023-02-11T15:43:16.238Z,7.47
2023-02-11T15:46:23.185Z,7.46
2023-02-11T15:49:28.243Z,7.43
2023-02-11T15:52:33.384Z,7.40
2023-02-11T15:55:41.156Z,7.39
2023-02-11T15:58:47.762Z,7.44
2023-02-11T16:01:54.279Z,7.41
2023-02-11T16:05:09.585Z,7.43
2023-02-11T16:08:29.941Z,7.43
2023-02-11T16:11:38.405Z,7.43
2023-02-11T16:14:42.653Z,7.41
2023-02-11T16:17:46.936Z,7.47
2023-02-11T16:20:51.777Z,7.47
2023-02-11T16:23:57.908Z,7.47
2023-02-11T16:27:23.969Z,7.51
2023-02-11T16:30:33.775Z,7.51
2023-02-11T16:33:38.131Z,7.56
2023-02-11T16:36:42.273Z,7.57
2023-02-11T16:39:47.150Z,7.52
2023-02-11T16:42:53.323Z,7.51
2023-02-11T16:45:58.410Z,7.47
2023-02-11T16:49:17.518Z,7.50
2023-02-11T16:52:22.164Z,7.44
2023-02-11T16:55:26.301Z,7.49
2023-02-11T16:58:30.738Z,7.47
2023-02-11T17:01:36.842Z,7.48
2023-02-11T17:04:41.315Z,7.47
2023-02-11T17:07:46.843Z,7.52
2023-02-11T17:10:51.243Z,7.42
2023-02-11T17:13:55.558Z,7.41
2023-02-11T17:17:00.130Z,7.43
2023-02-11T17:20:06.352Z,7.44
2023-02-11T17:23:10.510Z,7.44
2023-02-11T17:26:14.520Z,7.51
2023-02-11T17:29:21.806Z,7.38
2023-02-11T17:32:25.894Z,7.40
2023-02-11T17:35:30.158Z,7.39
2023-02-11T17:38:35.911Z,7.32
2023-02-11T17:41:40.688Z,7.37
2023-02-11T17:44:45.712Z,7.31
2023-02-11T17:47:49.975Z,7.26
2023-02-11T17:50:54.112Z,7.21
2023-02-11T17:54:01.207Z,7.24
2023-02-11T17:57:05.391Z,7.13
2023-02-11T18:00:10.335Z,7.06
2023-02-11T18:03:14.409Z,7.03
2023-02-11T18:06:19.361Z,7.02
2023-02-11T18:09:25.298Z,7.04
2023-02-11T18:12:29.515Z,6.94
2023-02-11T18:15:34.192Z,6.96
2023-02-11T18:18:38.200Z,6.97
2023-02-11T18:21:42.448Z,6.87
2023-02-11T18:24:52.287Z,6.82
2023-02-11T18:27:56.341Z,6.80
2023-02-11T18:31:00.773Z,6.75
2023-02-11T18:34:07.476Z,6.69
2023-02-11T18:37:13.327Z,6.65
2023-02-11T18:40:17.514Z,6.68
2023-02-11T18:43:21.619Z,6.62
2023-02-11T18:46:25.879Z,6.67
2023-02-11T18:49:30.230Z,6.61
2023-02-11T18:52:38.096Z,6.54
2023-02-11T18:55:43.977Z,6.48
2023-02-11T18:58:49.030Z,6.52
2023-02-11T19:01:53.209Z,6.50
2023-02-11T19:04:57.426Z,6.53
2023-02-11T19:08:01.501Z,6.52
2023-02-11T19:11:05.744Z,6.53
2023-02-11T19:14:10.453Z,6.63
2023-02-11T19:17:14.531Z,6.63
2023-02-11T19:20:18.969Z,6.59
2023-02-11T19:23:22.972Z,6.55
2023-02-11T19:26:28.596Z,6.58
2023-02-11T19:29:34.951Z,6.64
2023-02-11T19:32:39.521Z,6.58
2023-02-11T19:35:43.954Z,6.62
2023-02-11T19:38:48.264Z,6.59
2023-02-11T19:41:52.686Z,6.67
2023-02-11T19:44:57.295Z,6.65
2023-02-11T19:48:01.364Z,6.69
2023-02-11T19:51:13.013Z,6.67
2023-02-11T19:54:17.803Z,6.67
2023-02-11T19:57:22.170Z,6.74
2023-02-11T20:00:26.550Z,6.64
2023-02-11T20:03:30.852Z,6.66
2023-02-11T20:06:35.744Z,6.74
2023-02-11T20:09:41.056Z,6.69
2023-02-11T20:12:45.676Z,6.69
2023-02-11T20:15:50.255Z,6.66
2023-02-11T20:18:54.982Z,6.64
2023-02-11T20:21:59.037Z,6.61
2023-02-11T20:25:03.337Z,6.61
2023-02-11T20:28:07.348Z,6.68
2023-02-11T20:31:12.464Z,6.59
2023-02-11T20:34:17.624Z,6.62
2023-02-11T20:37:21.825Z,6.64
2023-02-11T20:40:26.106Z,6.62
2023-02-11T20:43:31.053Z,6.66
2023-02-11T20:46:38.096Z,6.64
2023-02-11T20:49:42.876Z,6.62
2023-02-11T20:52:48.291Z,6.63
2023-02-11T20:55:52.623Z,6.59
2023-02-11T20:58:58.427Z,6.60
2023-02-11T21:02:02.725Z,6.63
2023-02-11T21:05:07.405Z,6.61
2023-02-11T21:08:11.766Z,6.63
2023-02-11T21:11:16.379Z,6.59
2023-02-11T21:14:22.260Z,6.62
2023-02-11T21:17:27.482Z,6.63
2023-02-11T21:20:31.724Z,6.63
2023-02-11T21:23:35.947Z,6.61
2023-02-11T21:26:40.194Z,6.62
2023-02-11T21:29:53.859Z,6.64
2023-02-11T21:32:59.566Z,6.71
2023-02-11T21:36:04.614Z,6.75
2023-02-11T21:39:08.967Z,6.68
2023-02-11T21:42:12.666Z,6.68
2023-02-11T21:45:17.282Z,6.73
2023-02-11T21:48:21.362Z,6.64
2023-02-11T21:51:26.468Z,6.70
2023-02-11T21:54:32.034Z,6.68
2023-02-11T21:57:36.481Z,6.71
2023-02-11T22:00:40.679Z,6.79
2023-02-11T22:03:45.993Z,6.80
2023-02-11T22:06:50.157Z,6.83
2023-02-11T22:09:55.640Z,6.76
2023-02-11T22:12:59.639Z,6.76
2023-02-11T22:16:07.201Z,6.75
2023-02-11T22:19:11.683Z,6.73
2023-02-11T22:22:18.237Z,6.72
2023-02-11T22:25:22.126Z,6.79
2023-02-11T22:28:26.591Z,6.71
2023-02-11T22:31:33.289Z,6.82
2023-02-11T22:34:37.689Z,6.79
2023-02-11T22:37:41.741Z,6.72
2023-02-11T22:40:45.368Z,6.77
2023-02-11T22:43:50.161Z,6.74
2023-02-11T22:46:54.746Z,6.77
2023-02-11T22:49:59.174Z,6.76
2023-02-11T22:53:03.393Z,6.75
2023-02-11T22:56:15.389Z,6.72
2023-02-11T22:59:20.425Z,6.76
2023-02-11T23:02:24.560Z,6.76
2023-02-11T23:05:28.858Z,6.77
2023-02-11T23:08:33.663Z,6.74
2023-02-11T23:11:38.221Z,6.74
2023-02-11T23:14:42.712Z,6.70
2023-02-11T23:17:46.864Z,6.75
2023-02-11T23:20:50.998Z,6.74
2023-02-11T23:23:57.066Z,6.76
2023-02-11T23:27:00.949Z,6.72
2023-02-11T23:30:05.777Z,6.74
2023-02-11T23:33:09.714Z,6.77
2023-02-11T23:36:15.106Z,6.74
2023-02-11T23:39:19.096Z,6.81
2023-02-11T23:42:23.512Z,6.76
2023-02-11T23:45:27.841Z,6.68
2023-02-11T23:48:32.146Z,6.67
2023-02-11T23:51:36.405Z,6.71
2023-02-11T23:54:40.580Z,6.71
2023-02-11T23:57:44.760Z,6.72
